Griffith, Indiana
Current Conditions -  °F | °C
As of 6:35 PM on Sunday 25 Jan 2015 (Local Time) from KIGQ Reporting Station
Overcast Overcast  
Wind Chill: 15°   Ceiling: 2000
Heat Index: 27°   Visibility: 10mi
Dew Point: 22°   Wind: 17mph
Humidity: 81%   Direction: 30°NNE
Pressure: 29.94"   Gusts: 21mph
Location:  41.52°N, 87.43°W
Report Text: KIGQ 260035Z AUTO 03015G18KT 10SM OVC020 M03/M05 A2994 RMK AO2 T10261055
Loading
Personal Weather Stations






























Interactive Weather Map New forecast layout! Learn more

10-Day Weather Forecast

Advertisements
Track Severe Weather on mobile